Time;durP1;ratioP1;P1;durP2;ratioP2;P2;SDS_P1;SDS_P2;PMS_P1;PMS_P2;Temp;Humidity;BMP_temperature;BMP_pressure;BME280_temperature;BME280_humidity;BME280_pressure;Samples;Min_cycle;Max_cycle;Signal;HPM_P1;HPM_P2
2021/10/06 00:01:20;;;;;;;0.80;0.80;;;;;;;13.62;92.69;96145.81;5018164;28;20726;-73
2021/10/06 00:03:46;;;;;;;1.73;1.10;;;;;;;13.80;92.14;96152.22;5017827;28;20602;-73
2021/10/06 00:06:13;;;;;;;4.17;1.10;;;;;;;13.94;92.25;96145.97;5017159;28;20442;-73
2021/10/06 00:08:39;;;;;;;2.20;1.07;;;;;;;13.86;92.38;96147.97;5019179;28;20206;-73
2021/10/06 00:11:06;;;;;;;3.43;1.00;;;;;;;13.70;92.68;96153.63;5018085;28;20210;-73
2021/10/06 00:13:32;;;;;;;2.13;1.10;;;;;;;13.93;91.78;96157.56;5017438;28;20218;-73
2021/10/06 00:16:01;;;;;;;3.63;1.05;;;;;;;14.23;92.47;96159.72;5017934;28;20221;-73
2021/10/06 00:18:27;;;;;;;2.72;1.52;;;;;;;13.98;93.08;96152.50;5018269;28;20202;-73
2021/10/06 00:20:54;;;;;;;2.78;1.33;;;;;;;14.13;93.45;96154.00;5017563;28;20587;-73
2021/10/06 00:23:21;;;;;;;2.58;1.10;;;;;;;14.07;93.02;96161.91;5017605;28;20241;-73
2021/10/06 00:25:47;;;;;;;3.35;1.30;;;;;;;13.99;92.78;96173.47;5023786;28;20206;-74
2021/10/06 00:28:14;;;;;;;2.88;1.23;;;;;;;14.08;92.75;96177.63;5017455;28;20221;-73
2021/10/06 00:30:40;;;;;;;2.83;1.10;;;;;;;13.96;93.20;96174.91;5024581;28;20233;-73
2021/10/06 00:33:08;;;;;;;2.00;1.13;;;;;;;14.24;92.99;96176.44;5018034;28;20229;-73
2021/10/06 00:35:35;;;;;;;3.00;1.30;;;;;;;13.97;92.94;96180.00;5024573;28;20206;-73
2021/10/06 00:38:01;;;;;;;3.42;1.10;;;;;;;13.98;93.64;96164.94;5017599;28;20205;-73
2021/10/06 00:40:27;;;;;;;5.97;1.00;;;;;;;13.97;93.64;96168.59;5017644;28;20202;-73
2021/10/06 00:42:55;;;;;;;2.27;1.20;;;;;;;13.64;93.07;96179.03;5017432;28;20236;-73
2021/10/06 00:45:22;;;;;;;4.50;1.00;;;;;;;13.67;92.55;96176.03;5017382;28;20202;-73
2021/10/06 00:47:48;;;;;;;3.60;1.10;;;;;;;13.37;93.57;96173.03;5013966;28;20226;-73
2021/10/06 00:50:16;;;;;;;3.88;0.90;;;;;;;13.53;92.52;96174.31;5017540;28;20210;-73
2021/10/06 00:52:45;;;;;;;1.50;0.73;;;;;;;13.68;92.65;96180.31;5017091;28;20205;-73
2021/10/06 00:55:13;;;;;;;4.65;0.98;;;;;;;14.00;90.88;96180.41;5017728;28;20209;-73
2021/10/06 00:57:39;;;;;;;1.83;0.90;;;;;;;14.02;91.07;96191.63;5017126;28;20206;-73
2021/10/06 01:00:08;;;;;;;2.37;0.97;;;;;;;13.87;91.96;96184.84;5017137;28;20213;-73
2021/10/06 01:02:34;;;;;;;1.67;1.00;;;;;;;13.60;92.69;96182.28;5017314;28;20209;-73
2021/10/06 01:05:01;;;;;;;1.23;0.90;;;;;;;13.61;92.31;96184.75;5017674;28;20216;-73
2021/10/06 01:07:29;;;;;;;2.53;0.97;;;;;;;13.43;93.04;96186.28;5016217;28;20224;-73
2021/10/06 01:09:55;;;;;;;2.03;1.00;;;;;;;13.55;92.03;96185.50;5017302;28;20233;-73
2021/10/06 01:12:22;;;;;;;2.15;0.80;;;;;;;13.40;92.50;96191.94;5018064;28;20232;-73
2021/10/06 01:14:49;;;;;;;3.47;0.90;;;;;;;13.50;92.79;96187.97;5015952;28;21285;-73
2021/10/06 01:17:16;;;;;;;1.80;0.80;;;;;;;13.42;92.82;96196.03;5016067;28;20932;-73
2021/10/06 01:19:42;;;;;;;3.33;0.90;;;;;;;13.27;93.22;96196.38;5025809;28;20202;-73
2021/10/06 01:22:11;;;;;;;2.43;0.90;;;;;;;13.40;92.86;96198.09;5017352;28;20216;-73
2021/10/06 01:24:37;;;;;;;3.93;1.00;;;;;;;13.33;93.45;96199.06;5016380;28;20284;-73
2021/10/06 01:27:04;;;;;;;3.97;1.03;;;;;;;13.41;92.62;96207.63;5016257;28;20230;-73
2021/10/06 01:29:30;;;;;;;5.50;1.00;;;;;;;13.47;92.13;96193.63;5017545;28;20217;-73
2021/10/06 01:31:57;;;;;;;2.90;1.03;;;;;;;13.56;92.08;96196.94;5016460;28;20214;-73
2021/10/06 01:34:24;;;;;;;3.53;0.87;;;;;;;13.52;92.35;96207.09;5017009;28;20225;-73
2021/10/06 01:36:53;;;;;;;4.20;1.00;;;;;;;13.61;92.33;96211.22;5015889;28;20214;-73
2021/10/06 01:39:23;;;;;;;3.23;1.00;;;;;;;13.43;92.69;96208.28;5016924;28;20210;-73
2021/10/06 01:41:51;;;;;;;3.13;1.00;;;;;;;13.53;92.75;96210.56;5016762;28;20202;-73
2021/10/06 01:44:19;;;;;;;7.40;0.90;;;;;;;13.62;91.92;96204.91;5016726;28;20606;-73
2021/10/06 01:46:47;;;;;;;3.00;0.80;;;;;;;13.47;92.70;96206.88;5012491;28;20198;-73
2021/10/06 01:49:14;;;;;;;1.90;1.10;;;;;;;13.59;92.64;96197.38;5016924;28;20202;-73
2021/10/06 01:51:41;;;;;;;1.93;1.07;;;;;;;13.52;92.80;96191.22;5017109;28;20576;-73
2021/10/06 01:54:09;;;;;;;2.07;0.93;;;;;;;13.64;93.09;96200.22;5016993;28;20237;-73
2021/10/06 01:56:36;;;;;;;3.63;1.10;;;;;;;13.53;93.29;96205.25;5016124;28;20213;-73
2021/10/06 01:59:03;;;;;;;3.90;0.83;;;;;;;13.44;92.84;96207.25;5016505;28;20697;-73
2021/10/06 02:01:30;;;;;;;1.53;0.80;;;;;;;13.55;92.73;96209.34;5016823;28;20300;-73
2021/10/06 02:03:56;;;;;;;3.47;1.20;;;;;;;13.61;91.84;96215.72;5024726;28;20598;-73
2021/10/06 02:06:23;;;;;;;3.80;0.90;;;;;;;13.58;91.78;96211.63;5016158;28;20206;-73
2021/10/06 02:08:49;;;;;;;1.47;0.80;;;;;;;13.55;91.66;96216.47;5020413;28;20240;-73
2021/10/06 02:11:16;;;;;;;2.23;1.10;;;;;;;13.54;91.19;96215.69;5023887;28;20206;-73
2021/10/06 02:13:44;;;;;;;2.60;1.00;;;;;;;13.77;90.77;96216.19;5016600;28;20230;-73
2021/10/06 02:16:10;;;;;;;2.47;1.23;;;;;;;13.61;90.96;96219.16;5015349;28;20209;-73
2021/10/06 02:18:37;;;;;;;5.10;1.13;;;;;;;13.46;91.04;96226.41;5016373;28;20202;-73
2021/10/06 02:21:03;;;;;;;6.00;1.15;;;;;;;13.51;92.35;96221.34;5016653;28;20206;-73
2021/10/06 02:23:30;;;;;;;2.90;0.93;;;;;;;13.51;92.35;96221.34;5016474;28;20232;-73
2021/10/06 02:25:56;;;;;;;4.75;1.30;;;;;;;13.60;91.86;96220.16;5021594;28;20213;-73
2021/10/06 02:28:22;;;;;;;5.68;1.13;;;;;;;13.45;91.58;96232.72;5019985;28;20233;-73
2021/10/06 02:30:50;;;;;;;6.43;1.10;;;;;;;13.65;92.00;96228.34;5019795;28;20415;-73
2021/10/06 02:33:17;;;;;;;2.53;0.97;;;;;;;13.29;93.09;96237.50;5020281;28;20230;-74
2021/10/06 02:35:44;;;;;;;4.23;1.10;;;;;;;13.27;92.92;96236.06;5019864;28;20670;-73
2021/10/06 02:38:10;;;;;;;4.27;1.10;;;;;;;13.31;93.07;96239.94;5019739;28;20206;-74
2021/10/06 02:40:37;;;;;;;3.40;1.10;;;;;;;13.21;93.70;96239.47;5019945;28;20212;-73
2021/10/06 02:43:04;;;;;;;7.33;1.30;;;;;;;13.32;92.84;96225.72;5020070;28;20221;-73
2021/10/06 02:45:31;;;;;;;2.87;1.10;;;;;;;13.01;94.08;96233.22;5019008;28;20622;-73
2021/10/06 02:47:59;;;;;;;3.37;1.30;;;;;;;13.52;93.37;96233.56;5016936;28;20586;-73
2021/10/06 02:50:26;;;;;;;1.53;0.83;;;;;;;13.51;92.13;96234.56;5025838;28;20603;-73
2021/10/06 02:52:53;;;;;;;3.20;1.07;;;;;;;13.47;92.31;96238.63;5019271;28;20230;-73
2021/10/06 02:55:19;;;;;;;1.90;1.00;;;;;;;13.64;92.86;96229.34;5019348;28;20205;-74
2021/10/06 02:57:46;;;;;;;3.03;1.00;;;;;;;13.31;92.87;96230.16;5019322;28;20206;-73
2021/10/06 03:00:13;;;;;;;6.25;1.30;;;;;;;13.53;92.91;96235.22;5019695;28;20205;-73
2021/10/06 03:02:40;;;;;;;1.87;1.10;;;;;;;13.60;92.79;96237.91;5023811;28;20788;-73
2021/10/06 03:05:09;;;;;;;2.70;1.00;;;;;;;13.67;92.86;96246.69;5022409;28;20252;-73
2021/10/06 03:07:36;;;;;;;3.73;1.10;;;;;;;13.33;92.98;96253.78;5019024;28;20325;-73
2021/10/06 03:10:04;;;;;;;2.53;1.00;;;;;;;13.37;92.83;96255.88;5019284;28;21096;-73
2021/10/06 03:12:30;;;;;;;3.80;1.00;;;;;;;13.26;93.16;96259.03;5019098;28;20202;-73
2021/10/06 03:14:56;;;;;;;4.07;1.37;;;;;;;13.23;93.02;96258.63;5019503;28;20226;-73
2021/10/06 03:17:23;;;;;;;3.00;1.20;;;;;;;13.03;93.72;96262.94;5018318;28;20213;-73
2021/10/06 03:19:49;;;;;;;4.23;1.20;;;;;;;13.29;92.69;96271.06;5019067;28;20209;-73
2021/10/06 03:22:17;;;;;;;5.30;1.27;;;;;;;13.54;93.44;96262.50;5019080;28;20288;-73
2021/10/06 03:24:44;;;;;;;2.73;1.07;;;;;;;13.42;93.53;96264.84;5019281;28;20226;-73
2021/10/06 03:27:11;;;;;;;2.63;1.10;;;;;;;13.19;93.35;96267.97;5020919;28;20206;-73
2021/10/06 03:29:37;;;;;;;2.97;1.20;;;;;;;13.23;92.53;96274.50;5018916;28;20201;-73
2021/10/06 03:32:04;;;;;;;5.55;1.27;;;;;;;13.44;92.67;96269.97;5018918;28;20202;-73
2021/10/06 03:34:31;;;;;;;4.90;1.30;;;;;;;13.26;92.91;96274.91;5019136;28;20221;-73
2021/10/06 03:36:57;;;;;;;6.00;1.30;;;;;;;13.36;92.97;96275.41;5017401;28;20218;-73
2021/10/06 03:39:25;;;;;;;1.97;1.27;;;;;;;13.64;93.32;96278.84;5018556;28;20198;-73
2021/10/06 03:41:51;;;;;;;2.50;1.20;;;;;;;13.37;92.67;96286.81;5018918;28;20202;-73
2021/10/06 03:44:18;;;;;;;4.33;1.33;;;;;;;13.17;93.47;96285.84;5018445;28;20229;-73
2021/10/06 03:46:44;;;;;;;2.97;1.20;;;;;;;13.55;92.82;96285.31;5020604;28;20908;-73
2021/10/06 03:49:11;;;;;;;3.13;1.30;;;;;;;13.55;92.91;96286.13;5020806;28;20221;-73
2021/10/06 03:51:37;;;;;;;4.97;1.23;;;;;;;13.51;92.93;96290.16;5018368;28;20206;-73
2021/10/06 03:54:03;;;;;;;3.17;1.10;;;;;;;13.69;91.46;96292.34;5026109;28;20239;-73
2021/10/06 03:56:31;;;;;;;3.73;1.10;;;;;;;13.69;91.70;96292.34;5018750;28;20198;-73
2021/10/06 03:58:58;;;;;;;5.07;1.27;;;;;;;13.52;92.14;96297.09;5018366;28;20661;-74
2021/10/06 04:01:24;;;;;;;3.28;1.20;;;;;;;13.45;92.27;96304.19;5017751;28;20212;-73
2021/10/06 04:03:51;;;;;;;2.00;1.13;;;;;;;13.38;91.19;96299.03;5019096;28;20236;-74
2021/10/06 04:06:17;;;;;;;3.70;1.13;;;;;;;13.27;91.67;96296.94;5017501;28;20682;-73
2021/10/06 04:08:43;;;;;;;2.97;1.20;;;;;;;13.12;91.79;96301.47;5017710;28;20233;-73
2021/10/06 04:11:10;;;;;;;3.13;1.13;;;;;;;13.04;91.34;96296.31;5018678;28;20212;-73
2021/10/06 04:13:38;;;;;;;3.13;1.07;;;;;;;12.87;93.58;96300.25;5017872;28;20324;-73
2021/10/06 04:16:05;;;;;;;3.13;1.10;;;;;;;13.15;91.59;96298.44;5016918;28;20701;-73
2021/10/06 04:18:31;;;;;;;3.73;1.20;;;;;;;13.03;91.69;96314.00;5018471;28;20209;-73
2021/10/06 04:20:57;;;;;;;3.77;1.10;;;;;;;12.99;91.08;96309.31;5018261;28;20206;-73
2021/10/06 04:23:24;;;;;;;2.13;0.90;;;;;;;12.89;91.66;96312.28;5017707;28;20839;-73
2021/10/06 04:25:50;;;;;;;4.47;1.00;;;;;;;12.80;91.97;96312.53;5023267;28;20205;-73
2021/10/06 04:28:17;;;;;;;4.37;0.93;;;;;;;13.08;91.33;96316.09;5018969;28;20236;-73
2021/10/06 04:30:45;;;;;;;5.53;1.10;;;;;;;13.28;90.36;96327.69;5017650;28;20289;-73
2021/10/06 04:33:11;;;;;;;1.93;1.10;;;;;;;12.84;91.52;96329.66;5017972;28;20606;-73
2021/10/06 04:35:38;;;;;;;3.17;1.13;;;;;;;13.12;90.84;96333.22;5017162;28;20205;-73
2021/10/06 04:38:04;;;;;;;5.20;1.23;;;;;;;12.77;92.16;96334.06;5017666;28;20233;-73
2021/10/06 04:40:31;;;;;;;2.47;1.00;;;;;;;12.90;91.25;96335.03;5017171;28;20204;-73
2021/10/06 04:42:57;;;;;;;4.50;1.13;;;;;;;12.69;92.42;96336.84;5017560;28;20718;-73
2021/10/06 04:45:24;;;;;;;3.43;1.20;;;;;;;12.79;92.23;96337.34;5017320;28;20201;-73
2021/10/06 04:47:51;;;;;;;2.70;1.00;;;;;;;12.88;92.41;96334.44;5013914;28;20225;-73
2021/10/06 04:50:18;;;;;;;6.87;1.20;;;;;;;12.49;92.93;96343.72;5017708;28;20210;-73
2021/10/06 04:52:44;;;;;;;3.77;1.07;;;;;;;12.64;92.80;96341.88;5017678;28;20205;-73
2021/10/06 04:55:11;;;;;;;2.93;1.20;;;;;;;12.75;91.80;96341.38;5017106;28;20209;-73
2021/10/06 04:57:37;;;;;;;1.87;0.83;;;;;;;12.92;90.74;96338.34;5017261;28;20581;-73
2021/10/06 05:00:05;;;;;;;3.20;0.90;;;;;;;12.84;91.63;96340.25;5017842;28;20206;-73
2021/10/06 05:02:32;;;;;;;4.87;1.10;;;;;;;12.74;91.46;96342.41;5016804;28;20217;-73
2021/10/06 05:04:59;;;;;;;9.53;1.50;;;;;;;12.99;91.07;96354.28;5017393;28;20213;-73
2021/10/06 05:07:26;;;;;;;5.53;1.00;;;;;;;12.61;91.85;96363.38;5024110;28;20213;-73
2021/10/06 05:09:52;;;;;;;2.20;1.00;;;;;;;12.73;91.84;96353.97;5023242;28;20236;-73
2021/10/06 05:12:19;;;;;;;2.40;1.10;;;;;;;12.62;91.73;96351.81;5016907;28;20214;-73
2021/10/06 05:14:45;;;;;;;2.97;0.90;;;;;;;12.54;92.56;96344.00;5017620;28;20642;-73
2021/10/06 05:17:11;;;;;;;3.20;1.17;;;;;;;12.44;92.32;96354.03;5016319;28;20217;-73
2021/10/06 05:19:38;;;;;;;3.10;1.20;;;;;;;12.54;91.00;96357.22;5016864;28;20225;-73
2021/10/06 05:22:06;;;;;;;4.90;1.00;;;;;;;12.67;91.00;96359.19;5017695;28;20202;-73
2021/10/06 05:24:32;;;;;;;2.20;0.97;;;;;;;12.48;91.73;96360.59;5017009;28;20226;-73
2021/10/06 05:26:59;;;;;;;2.87;1.00;;;;;;;12.57;90.92;96370.03;5016205;28;20229;-73
2021/10/06 05:29:25;;;;;;;4.27;1.00;;;;;;;12.64;89.80;96367.47;5017417;28;20225;-73
2021/10/06 05:31:52;;;;;;;2.20;0.90;;;;;;;12.52;89.98;96374.25;5017282;28;20576;-73
2021/10/06 05:34:18;;;;;;;1.23;1.00;;;;;;;12.63;90.00;96377.25;5016453;28;20700;-73
2021/10/06 05:36:45;;;;;;;4.53;1.30;;;;;;;12.49;91.13;96388.66;5017084;28;20210;-72
2021/10/06 05:39:12;;;;;;;8.13;2.50;;;;;;;13.11;89.41;96397.72;5024020;28;20206;-73
2021/10/06 05:41:39;;;;;;;6.30;2.60;;;;;;;12.61;90.63;96397.75;5026442;28;20918;-73
2021/10/06 05:44:05;;;;;;;5.30;2.07;;;;;;;12.48;89.84;96402.88;5022522;28;20228;-73
2021/10/06 05:46:32;;;;;;;2.03;1.10;;;;;;;12.39;90.65;96401.34;5017948;28;20202;-73
2021/10/06 05:48:59;;;;;;;4.90;1.17;;;;;;;12.41;90.33;96394.06;5016167;28;20929;-73
2021/10/06 05:51:25;;;;;;;3.53;1.30;;;;;;;12.65;89.75;96396.38;5020524;28;20202;-73
2021/10/06 05:53:51;;;;;;;4.13;1.30;;;;;;;12.55;90.11;96410.88;5031704;28;20236;-73
2021/10/06 05:56:19;;;;;;;2.10;1.10;;;;;;;12.53;90.85;96412.91;5021807;28;20205;-73
2021/10/06 05:58:46;;;;;;;5.10;1.13;;;;;;;12.39;90.04;96411.91;5023361;28;20209;-73
2021/10/06 06:01:12;;;;;;;2.93;1.10;;;;;;;12.55;89.98;96401.16;5030765;28;20205;-73
2021/10/06 06:03:38;;;;;;;2.20;1.30;;;;;;;12.54;89.19;96410.06;5022064;28;20233;-73
2021/10/06 06:06:05;;;;;;;3.20;1.00;;;;;;;12.65;88.68;96399.00;5021412;28;20202;-73
2021/10/06 06:08:32;;;;;;;3.73;1.00;;;;;;;12.68;88.84;96401.31;5027928;28;20222;-73
2021/10/06 06:10:58;;;;;;;1.33;1.00;;;;;;;12.60;88.95;96390.84;5029307;28;20209;-73
2021/10/06 06:13:26;;;;;;;2.43;0.90;;;;;;;13.04;87.94;96394.22;5022219;28;20222;-73
2021/10/06 06:15:53;;;;;;;3.10;1.00;;;;;;;12.64;88.83;96409.78;5019742;28;20202;-73
2021/10/06 06:18:20;;;;;;;4.57;1.00;;;;;;;12.96;87.75;96418.94;5029255;28;20205;-73
2021/10/06 06:20:47;;;;;;;2.37;0.90;;;;;;;12.78;88.26;96418.50;5020413;28;20232;-73
2021/10/06 06:23:14;;;;;;;4.10;1.03;;;;;;;12.82;89.10;96424.25;5031512;28;20228;-73
2021/10/06 06:25:41;;;;;;;6.57;1.20;;;;;;;13.16;88.51;96435.88;5020263;28;20827;-73
2021/10/06 06:28:07;;;;;;;6.90;1.40;;;;;;;13.18;88.30;96435.66;5025304;28;20220;-73
2021/10/06 06:30:35;;;;;;;2.67;1.10;;;;;;;12.98;88.97;96429.34;5020643;28;21169;-73
2021/10/06 06:33:01;;;;;;;5.23;1.20;;;;;;;13.14;87.95;96437.88;5030682;28;20232;-73
2021/10/06 06:35:28;;;;;;;3.53;1.10;;;;;;;12.82;89.56;96440.13;5018878;28;20208;-73
2021/10/06 06:37:54;;;;;;;1.87;1.00;;;;;;;12.76;88.89;96439.00;5027867;28;20735;-73
2021/10/06 06:40:21;;;;;;;4.30;1.10;;;;;;;12.55;89.33;96438.16;5025974;28;20205;-73
2021/10/06 06:42:48;;;;;;;0.73;0.67;;;;;;;12.33;89.15;96456.75;5019751;28;20214;-73
2021/10/06 06:45:14;;;;;;;4.97;1.00;;;;;;;12.62;89.64;96439.03;5025148;28;20213;-73
2021/10/06 06:47:42;;;;;;;1.70;0.70;;;;;;;12.81;88.21;96451.69;5024609;28;20210;-73
2021/10/06 06:50:10;;;;;;;3.20;0.90;;;;;;;13.00;88.02;96453.78;5019704;28;20225;-73
2021/10/06 06:52:36;;;;;;;1.67;0.83;;;;;;;12.73;87.21;96457.09;5028474;28;20232;-73
2021/10/06 06:55:03;;;;;;;4.60;1.00;;;;;;;12.71;88.59;96455.63;5023111;28;20213;-73
2021/10/06 06:57:30;;;;;;;3.83;1.00;;;;;;;12.96;87.17;96457.81;5018949;28;20202;-73
2021/10/06 06:59:56;;;;;;;4.37;1.03;;;;;;;13.10;87.73;96455.13;5025738;28;20205;-73
2021/10/06 07:02:23;;;;;;;4.93;1.20;;;;;;;12.65;89.43;96453.72;5020435;28;20206;-73
2021/10/06 07:04:51;;;;;;;4.53;1.33;;;;;;;13.09;88.78;96453.47;5019613;28;20225;-73
2021/10/06 07:07:17;;;;;;;5.93;0.90;;;;;;;13.12;88.52;96444.34;5020580;28;20202;-73
2021/10/06 07:09:48;;;;;;;4.10;1.13;;;;;;;13.14;88.30;96437.06;5037567;28;20248;-73
2021/10/06 07:12:15;;;;;;;2.33;1.00;;;;;;;13.09;87.38;96436.78;5021929;28;20212;-73
2021/10/06 07:14:42;;;;;;;2.30;1.00;;;;;;;12.88;87.71;96447.31;5027854;28;20237;-73
2021/10/06 07:17:09;;;;;;;7.33;1.17;;;;;;;12.94;87.02;96436.00;5024023;28;20214;-73
2021/10/06 07:19:36;;;;;;;1.83;1.03;;;;;;;12.73;87.84;96438.59;5028388;28;20208;-73
2021/10/06 07:22:05;;;;;;;4.83;1.07;;;;;;;13.33;86.75;96445.19;5029613;28;20210;-73
2021/10/06 07:24:31;;;;;;;1.53;0.80;;;;;;;13.05;86.14;96441.63;5023170;28;20221;-73
2021/10/06 07:26:59;;;;;;;1.60;0.97;;;;;;;12.82;86.68;96440.13;5022333;28;20204;-73
2021/10/06 07:29:25;;;;;;;5.43;1.20;;;;;;;12.75;87.15;96433.91;5029500;28;20225;-73
2021/10/06 07:31:52;;;;;;;3.23;0.93;;;;;;;13.23;87.00;96441.22;5019228;28;20216;-73
2021/10/06 07:34:19;;;;;;;3.63;1.03;;;;;;;13.16;85.97;96445.59;5022399;28;20240;-73
2021/10/06 07:36:45;;;;;;;3.10;1.10;;;;;;;13.64;84.87;96449.13;5031381;28;20586;-73
2021/10/06 07:39:13;;;;;;;3.20;1.10;;;;;;;13.83;84.39;96451.13;5018781;28;20735;-73
2021/10/06 07:41:39;;;;;;;2.83;1.00;;;;;;;13.50;83.94;96458.00;5018259;28;20670;-73
2021/10/06 07:44:06;;;;;;;6.37;1.20;;;;;;;13.47;85.47;96470.78;5020852;28;20226;-73
2021/10/06 07:46:33;;;;;;;2.43;1.10;;;;;;;13.44;84.58;96473.78;5017631;28;20205;-73
2021/10/06 07:49:00;;;;;;;8.20;1.17;;;;;;;13.38;84.34;96484.31;5017251;28;20231;-73
2021/10/06 07:51:26;;;;;;;3.03;1.03;;;;;;;13.24;84.40;96483.38;5018791;28;20213;-73
2021/10/06 07:53:53;;;;;;;4.23;1.20;;;;;;;13.30;85.33;96481.78;5023733;28;20226;-73
2021/10/06 07:56:22;;;;;;;4.73;0.90;;;;;;;13.53;83.90;96493.84;5017564;28;20206;-73
2021/10/06 07:58:49;;;;;;;3.70;1.10;;;;;;;13.18;84.69;96488.59;5017139;28;20215;-73
2021/10/06 08:01:16;;;;;;;5.00;1.00;;;;;;;13.39;84.97;96486.81;5025703;28;20604;-73
2021/10/06 08:03:42;;;;;;;3.00;1.37;;;;;;;13.42;84.63;96489.88;5018034;28;20233;-73
2021/10/06 08:06:08;;;;;;;4.50;1.40;;;;;;;13.47;84.35;96500.72;5016684;28;20722;-73
2021/10/06 08:08:35;;;;;;;3.40;1.30;;;;;;;13.17;85.06;96508.13;5022156;28;20205;-73
2021/10/06 08:11:02;;;;;;;4.27;1.00;;;;;;;13.30;83.65;96508.25;5018506;28;20213;-73
2021/10/06 08:13:30;;;;;;;3.90;1.10;;;;;;;13.63;84.84;96504.94;5017195;28;20718;-73
2021/10/06 08:15:57;;;;;;;3.97;1.17;;;;;;;13.68;84.26;96511.34;5019585;28;20201;-73
2021/10/06 08:18:24;;;;;;;5.17;1.17;;;;;;;13.50;83.96;96504.81;5018239;28;20702;-73
2021/10/06 08:20:52;;;;;;;2.73;1.10;;;;;;;13.54;84.40;96503.44;5017440;28;20202;-73
2021/10/06 08:23:20;;;;;;;5.80;1.50;;;;;;;13.79;84.22;96515.31;5016667;28;20226;-73
2021/10/06 08:25:48;;;;;;;3.80;1.10;;;;;;;13.66;84.03;96510.69;5025025;28;20205;-73
2021/10/06 08:28:15;;;;;;;3.37;1.23;;;;;;;13.92;83.37;96512.75;5017960;28;20202;-73
2021/10/06 08:30:43;;;;;;;6.93;1.17;;;;;;;14.10;83.41;96519.25;5017047;28;20225;-73
2021/10/06 08:33:10;;;;;;;3.57;1.10;;;;;;;13.87;82.65;96525.75;5016779;28;20676;-73
2021/10/06 08:35:37;;;;;;;2.53;1.20;;;;;;;14.47;81.94;96521.59;5015575;28;20202;-73
2021/10/06 08:38:05;;;;;;;4.60;1.30;;;;;;;14.44;80.02;96519.34;5015665;28;20317;-73
2021/10/06 08:40:33;;;;;;;2.93;1.20;;;;;;;14.27;80.53;96523.28;5028459;28;20204;-73
2021/10/06 08:43:00;;;;;;;6.27;1.20;;;;;;;14.14;80.52;96520.50;5018100;28;20229;-73
2021/10/06 08:45:27;;;;;;;3.30;1.17;;;;;;;14.23;78.91;96528.16;5025163;28;20247;-73
2021/10/06 08:47:56;;;;;;;1.33;0.60;;;;;;;14.52;79.07;96524.47;5020427;28;20209;-73
2021/10/06 08:50:23;;;;;;;2.92;1.13;;;;;;;14.84;78.25;96530.81;5017419;28;20336;-73
2021/10/06 08:52:51;;;;;;;3.55;0.90;;;;;;;14.45;79.11;96540.34;5017324;28;20237;-72
2021/10/06 08:55:27;;;;;;;4.10;1.40;;;;;;;14.85;77.22;96532.41;5025038;28;20205;-73
2021/10/06 08:57:54;;;;;;;2.63;0.80;;;;;;;14.26;78.10;96534.91;5020665;28;20662;-73
2021/10/06 09:00:20;;;;;;;4.07;1.05;;;;;;;14.77;76.68;96534.44;5016876;28;20197;-73
2021/10/06 09:02:47;;;;;;;4.55;1.27;;;;;;;15.24;74.57;96534.50;5020144;28;20204;-73
2021/10/06 09:05:15;;;;;;;7.72;1.00;;;;;;;15.11;73.93;96543.19;5028417;28;20773;-73
2021/10/06 09:07:55;;;;;;;4.78;1.13;;;;;;;15.51;73.62;96539.69;5016942;28;20588;-73
2021/10/06 09:10:22;;;;;;;3.25;0.82;;;;;;;15.01;75.67;96542.72;5020879;28;20340;-73
2021/10/06 09:12:57;;;;;;;1.80;0.80;;;;;;;14.90;73.96;96556.53;5029412;28;20662;-73
2021/10/06 09:15:23;;;;;;;2.20;0.95;;;;;;;15.12;74.15;96560.78;5020530;28;20208;-73
2021/10/06 09:17:57;;;;;;;6.75;2.00;;;;;;;15.14;74.28;96568.53;5016413;28;20651;-73
2021/10/06 09:20:35;;;;;;;3.00;1.30;;;;;;;14.56;73.86;96569.00;5019880;28;21076;-73
2021/10/06 09:23:04;;;;;;;4.95;1.13;;;;;;;14.98;74.59;96563.53;5017189;28;20229;-73
2021/10/06 09:25:37;;;;;;;7.20;1.20;;;;;;;14.75;73.18;96571.78;5022423;28;20204;-73
2021/10/06 09:28:07;;;;;;;4.63;1.00;;;;;;;15.39;73.24;96557.25;5018131;28;20760;-73
2021/10/06 09:30:33;;;;;;;4.43;1.20;;;;;;;15.21;73.52;96570.25;5023530;28;20763;-73
2021/10/06 09:33:01;;;;;;;3.63;1.10;;;;;;;15.17;72.10;96574.25;5019542;28;20229;-73
2021/10/06 09:35:27;;;;;;;3.67;1.00;;;;;;;15.14;71.92;96574.66;5017764;28;20206;-73
2021/10/06 09:37:58;;;;;;;5.53;1.73;;;;;;;15.64;72.17;96566.31;5029432;28;20209;-73
2021/10/06 09:40:28;;;;;;;4.55;1.75;;;;;;;15.61;71.04;96582.66;5021317;28;20338;-73
2021/10/06 09:42:56;;;;;;;4.43;1.08;;;;;;;15.28;71.96;96587.00;5020689;28;20656;-73
2021/10/06 09:45:26;;;;;;;3.58;0.90;;;;;;;15.32;71.93;96588.25;5020586;28;20221;-73
2021/10/06 09:48:03;;;;;;;4.03;1.00;;;;;;;15.63;71.06;96589.41;5021876;28;20217;-73
2021/10/06 09:50:30;;;;;;;2.20;0.90;;;;;;;15.56;69.52;96588.53;5021271;28;20316;-73
2021/10/06 09:53:06;;;;;;;2.88;0.73;;;;;;;15.73;69.29;96583.69;5021805;28;20252;-73
2021/10/06 09:55:33;;;;;;;3.83;1.08;;;;;;;15.51;69.08;96592.81;5026328;28;20219;-73
2021/10/06 09:58:00;;;;;;;6.05;1.10;;;;;;;15.25;67.69;96598.84;5023842;28;20248;-73
2021/10/06 10:00:26;;;;;;;3.33;1.13;;;;;;;15.31;67.50;96597.22;5026497;28;20590;-73
2021/10/06 10:02:53;;;;;;;3.72;0.70;;;;;;;15.43;65.43;96599.13;5035826;28;20224;-73
2021/10/06 10:05:20;;;;;;;4.50;1.00;;;;;;;15.23;67.40;96593.94;5022992;28;20212;-73
2021/10/06 10:07:46;;;;;;;2.45;0.90;;;;;;;15.32;68.50;96599.69;5025404;28;20206;-73
2021/10/06 10:10:14;;;;;;;3.17;1.00;;;;;;;15.33;66.96;96605.81;5028844;28;20225;-73
2021/10/06 10:12:42;;;;;;;1.65;0.60;;;;;;;15.28;67.63;96602.94;5020518;28;20202;-73
2021/10/06 10:15:09;;;;;;;2.50;0.80;;;;;;;15.04;67.15;96599.91;5025423;28;20209;-73
2021/10/06 10:17:36;;;;;;;0.73;0.73;;;;;;;14.71;66.66;96597.06;5027228;28;20205;-73
2021/10/06 10:20:08;;;;;;;5.55;0.80;;;;;;;15.45;67.39;96582.97;5030792;28;20299;-73
2021/10/06 10:22:39;;;;;;;5.18;0.88;;;;;;;15.41;66.99;96597.69;5032939;28;20210;-73
2021/10/06 10:25:17;;;;;;;2.67;0.90;;;;;;;15.50;66.45;96604.47;5020565;28;20209;-73
2021/10/06 10:28:01;;;;;;;3.97;1.08;;;;;;;15.09;68.71;96616.88;5025338;28;20197;-73
2021/10/06 10:30:28;;;;;;;3.08;0.75;;;;;;;14.70;72.06;96613.97;5021062;28;20664;-73
2021/10/06 10:32:54;;;;;;;1.38;0.70;;;;;;;14.29;75.31;96620.16;5019975;28;20206;-73
2021/10/06 10:35:36;;;;;;;5.57;0.90;;;;;;;14.84;74.02;96614.88;5020342;28;20205;-73
2021/10/06 10:38:08;;;;;;;4.03;0.90;;;;;;;15.14;76.18;96617.13;5026615;28;20248;-72
2021/10/06 10:40:54;;;;;;;3.75;1.20;;;;;;;15.22;74.81;96614.31;5027672;28;20208;-73
2021/10/06 10:43:23;;;;;;;4.55;1.13;;;;;;;15.71;76.28;96609.66;5028966;28;21108;-73
2021/10/06 10:46:05;;;;;;;3.53;1.05;;;;;;;16.15;72.74;96598.31;5025437;28;20206;-73
2021/10/06 10:48:39;;;;;;;5.05;1.08;;;;;;;16.01;72.13;96596.66;5027949;28;20232;-73
2021/10/06 10:51:15;;;;;;;3.85;1.00;;;;;;;16.08;69.94;96607.31;5021466;28;20233;-73
2021/10/06 10:54:00;;;;;;;8.00;0.98;;;;;;;15.70;66.96;96611.47;5024992;28;20305;-73
2021/10/06 10:56:40;;;;;;;1.65;0.70;;;;;;;15.70;66.50;96608.81;5019583;28;20886;-73
2021/10/06 10:59:07;;;;;;;5.22;0.80;;;;;;;15.41;67.18;96608.31;5027405;28;20296;-73
2021/10/06 11:01:46;;;;;;;3.20;0.82;;;;;;;15.84;65.84;96595.38;5028393;28;20206;-73
2021/10/06 11:04:15;;;;;;;1.23;0.70;;;;;;;16.09;65.91;96598.31;5025392;28;20229;-73
2021/10/06 11:06:44;;;;;;;2.78;0.80;;;;;;;15.81;64.12;96594.13;5031888;28;20206;-73
2021/10/06 11:09:43;;;;;;;2.38;0.88;;;;;;;16.50;61.27;96589.97;5033156;28;20300;-73
2021/10/06 11:12:33;;;;;;;5.25;0.80;;;;;;;16.12;61.94;96590.72;5019560;28;20824;-73
2021/10/06 11:15:27;;;;;;;1.33;0.70;;;;;;;16.02;63.42;96579.66;5024401;28;20221;-73
2021/10/06 11:18:25;;;;;;;2.20;0.70;;;;;;;16.12;62.65;96576.63;5021760;28;20210;-73
2021/10/06 11:21:11;;;;;;;2.92;0.70;;;;;;;16.03;62.32;96572.53;5021468;28;20216;-73
2021/10/06 11:23:46;;;;;;;3.75;0.80;;;;;;;16.67;61.77;96574.41;5020340;28;20731;-73
2021/10/06 11:26:16;;;;;;;5.88;1.23;;;;;;;16.31;60.62;96578.53;5020524;28;21147;-73
2021/10/06 11:28:45;;;;;;;1.67;0.80;;;;;;;16.36;58.85;96579.56;5022230;28;20209;-72
2021/10/06 11:31:13;;;;;;;1.95;0.75;;;;;;;16.20;57.53;96584.41;5018120;28;20232;-73
2021/10/06 11:33:40;;;;;;;1.45;0.70;;;;;;;16.35;58.15;96577.09;5018595;28;20229;-73
2021/10/06 11:36:15;;;;;;;0.55;0.47;;;;;;;16.29;57.62;96581.38;5016359;28;20221;-73
2021/10/06 11:38:44;;;;;;;2.40;0.60;;;;;;;16.22;59.18;96583.19;5018802;28;20214;-73